createdAt,value
2019-05-09T00:01:18.235Z,4.50
2019-05-09T00:03:47.664Z,4.30
2019-05-09T00:06:17.039Z,4.07
2019-05-09T00:08:46.505Z,4.03
2019-05-09T00:11:15.863Z,4.07
2019-05-09T00:13:45.246Z,4.07
2019-05-09T00:16:14.856Z,3.53
2019-05-09T00:18:44.443Z,3.10
2019-05-09T00:21:18.670Z,3.60
2019-05-09T00:23:48.037Z,3.40
2019-05-09T00:26:17.314Z,3.80
2019-05-09T00:28:49.315Z,3.07
2019-05-09T00:31:29.989Z,2.80
2019-05-09T00:34:04.102Z,2.63
2019-05-09T00:36:33.479Z,2.57
2019-05-09T00:39:04.084Z,2.83
2019-05-09T00:41:33.654Z,2.20
2019-05-09T00:44:18.985Z,2.60
2019-05-09T00:46:54.850Z,2.23
2019-05-09T00:49:25.545Z,2.30
2019-05-09T00:51:54.923Z,2.50
2019-05-09T00:54:24.349Z,2.00
2019-05-09T00:56:54.008Z,2.13
2019-05-09T00:59:24.125Z,2.40
2019-05-09T01:01:54.330Z,1.90
2019-05-09T01:04:24.261Z,2.00
2019-05-09T01:06:54.163Z,2.43
2019-05-09T01:09:24.299Z,2.17
2019-05-09T01:11:53.780Z,2.50
2019-05-09T01:14:23.614Z,2.43
2019-05-09T01:16:53.643Z,2.40
2019-05-09T01:19:23.385Z,2.20
2019-05-09T01:21:54.263Z,1.83
2019-05-09T01:24:23.783Z,1.93
2019-05-09T01:26:54.244Z,1.90
2019-05-09T01:29:23.818Z,1.60
2019-05-09T01:31:55.586Z,1.87
2019-05-09T01:34:28.329Z,1.50
2019-05-09T01:37:04.171Z,1.63
2019-05-09T01:39:34.339Z,1.80
2019-05-09T01:42:03.826Z,2.00
2019-05-09T01:44:33.622Z,1.60
2019-05-09T01:47:03.813Z,1.67
2019-05-09T01:49:34.168Z,1.73
2019-05-09T01:52:04.173Z,1.93
2019-05-09T01:54:35.716Z,2.23
2019-05-09T01:57:05.250Z,1.83
2019-05-09T01:59:34.614Z,1.80
2019-05-09T02:02:08.783Z,1.77
2019-05-09T02:04:35.257Z,1.90
2019-05-09T02:07:04.655Z,2.17
2019-05-09T02:09:34.518Z,3.67
2019-05-09T02:12:04.312Z,2.60
2019-05-09T02:14:40.329Z,3.77
2019-05-09T02:17:30.688Z,2.70
2019-05-09T02:20:00.047Z,3.30
2019-05-09T02:22:35.915Z,3.60
2019-05-09T02:25:08.559Z,4.47
2019-05-09T02:27:37.935Z,4.83
2019-05-09T02:30:07.746Z,4.30
2019-05-09T02:32:37.181Z,4.27
2019-05-09T02:35:07.641Z,4.77
2019-05-09T02:37:38.881Z,5.17
2019-05-09T02:40:09.795Z,5.13
2019-05-09T02:42:40.143Z,4.87
2019-05-09T02:45:10.199Z,3.90
2019-05-09T02:47:39.515Z,5.67
2019-05-09T02:50:10.067Z,4.20
2019-05-09T02:52:40.004Z,4.97
2019-05-09T02:55:10.607Z,4.40
2019-05-09T02:57:40.730Z,3.63
2019-05-09T03:00:32.266Z,4.43
2019-05-09T03:03:09.174Z,5.47
2019-05-09T03:05:38.399Z,4.80
2019-05-09T03:08:09.338Z,4.93
2019-05-09T03:10:39.130Z,4.47
2019-05-09T03:13:09.238Z,3.93
2019-05-09T03:15:39.502Z,4.33
2019-05-09T03:18:09.346Z,4.93
2019-05-09T03:21:01.058Z,4.33
2019-05-09T03:23:30.426Z,4.60
2019-05-09T03:25:59.810Z,4.50
2019-05-09T03:28:54.409Z,4.20
2019-05-09T03:31:24.579Z,5.33
2019-05-09T03:33:53.949Z,4.33
2019-05-09T03:36:23.283Z,3.70
2019-05-09T03:38:52.647Z,5.03
2019-05-09T03:41:22.027Z,3.43
2019-05-09T03:43:51.405Z,4.23
2019-05-09T03:46:33.787Z,4.17
2019-05-09T03:49:03.623Z,5.20
2019-05-09T03:51:35.291Z,4.00
2019-05-09T03:54:04.665Z,4.00
2019-05-09T03:56:38.280Z,4.00
2019-05-09T03:59:08.352Z,4.00
2019-05-09T04:01:38.250Z,4.57
2019-05-09T04:04:08.879Z,3.80
2019-05-09T04:06:39.082Z,4.43
2019-05-09T04:09:08.779Z,3.73
2019-05-09T04:11:38.277Z,5.37
2019-05-09T04:14:11.576Z,5.23
2019-05-09T04:16:40.929Z,4.00
2019-05-09T04:19:10.305Z,4.43
2019-05-09T04:21:39.577Z,3.63
2019-05-09T04:24:08.961Z,4.43
2019-05-09T04:26:52.264Z,4.50
2019-05-09T04:29:21.663Z,3.87
2019-05-09T04:31:51.017Z,4.63
2019-05-09T04:34:20.391Z,4.23
2019-05-09T04:36:49.746Z,4.67
2019-05-09T04:39:23.724Z,4.40
2019-05-09T04:41:50.132Z,4.43
2019-05-09T04:44:28.401Z,3.87
2019-05-09T04:46:59.902Z,5.03
2019-05-09T04:49:30.002Z,4.00
2019-05-09T04:52:00.072Z,5.43
2019-05-09T04:54:29.410Z,5.10
2019-05-09T04:56:58.784Z,5.30
2019-05-09T04:59:28.449Z,4.37
2019-05-09T05:02:15.672Z,4.83
2019-05-09T05:04:45.002Z,3.30
2019-05-09T05:07:14.371Z,4.53
2019-05-09T05:09:43.711Z,3.70
2019-05-09T05:12:13.092Z,5.03
2019-05-09T05:14:42.465Z,4.60
2019-05-09T05:17:11.839Z,4.23
2019-05-09T05:19:41.263Z,4.63
2019-05-09T05:22:31.084Z,5.97
2019-05-09T05:25:02.602Z,4.07
2019-05-09T05:27:31.946Z,4.03
2019-05-09T05:30:01.355Z,4.03
2019-05-09T05:32:45.620Z,4.10
2019-05-09T05:35:30.098Z,5.50
2019-05-09T05:37:59.435Z,3.93
2019-05-09T05:40:32.892Z,3.93
2019-05-09T05:42:59.827Z,4.13
2019-05-09T05:45:31.139Z,3.23
2019-05-09T05:48:09.127Z,4.93
2019-05-09T05:50:41.464Z,3.70
2019-05-09T05:53:10.832Z,3.53
2019-05-09T05:55:40.219Z,3.60
2019-05-09T05:58:09.547Z,4.00
2019-05-09T06:00:38.942Z,2.97
2019-05-09T06:03:08.836Z,3.10
2019-05-09T06:05:38.480Z,2.60
2019-05-09T06:08:08.295Z,3.57
2019-05-09T06:10:38.027Z,2.23
2019-05-09T06:13:08.673Z,2.17
2019-05-09T06:15:38.119Z,3.00
2019-05-09T06:18:08.029Z,2.47
2019-05-09T06:20:38.552Z,2.40
2019-05-09T06:23:08.586Z,2.23
2019-05-09T06:25:38.912Z,2.13
2019-05-09T06:28:08.472Z,2.33
2019-05-09T06:30:41.136Z,2.00
2019-05-09T06:33:09.282Z,1.67
2019-05-09T06:35:38.618Z,1.80
2019-05-09T06:38:08.121Z,2.00
2019-05-09T06:40:38.286Z,2.50
2019-05-09T06:43:25.361Z,2.40
2019-05-09T06:46:08.108Z,1.60
2019-05-09T06:48:37.925Z,1.57
2019-05-09T06:51:07.498Z,1.72
2019-05-09T06:53:37.984Z,1.40
2019-05-09T06:56:07.639Z,1.25
2019-05-09T06:58:38.577Z,2.03
2019-05-09T07:01:28.513Z,1.47
2019-05-09T07:04:03.393Z,2.43
2019-05-09T07:06:39.566Z,2.10
2019-05-09T07:09:17.445Z,2.10
2019-05-09T07:11:48.639Z,1.93
2019-05-09T07:14:33.395Z,2.00
2019-05-09T07:17:02.655Z,1.67
2019-05-09T07:19:32.051Z,1.73
2019-05-09T07:22:39.387Z,1.70
2019-05-09T07:25:11.812Z,1.80
2019-05-09T07:27:41.211Z,2.00
2019-05-09T07:30:34.630Z,1.97
2019-05-09T07:33:12.816Z,1.30
2019-05-09T07:35:42.074Z,1.67
2019-05-09T07:38:11.470Z,1.87
2019-05-09T07:40:43.876Z,1.95
2019-05-09T07:43:13.431Z,2.20
2019-05-09T07:46:05.232Z,1.97
2019-05-09T07:48:34.879Z,1.80
2019-05-09T07:51:04.475Z,1.70
2019-05-09T07:53:34.037Z,1.95
2019-05-09T07:56:03.656Z,2.00
2019-05-09T07:58:33.121Z,1.83
2019-05-09T08:01:02.545Z,1.00
2019-05-09T08:03:31.931Z,1.87
2019-05-09T08:06:01.352Z,1.57
2019-05-09T08:08:30.713Z,1.70
2019-05-09T08:11:00.086Z,2.12
2019-05-09T08:13:29.447Z,2.27
2019-05-09T08:15:59.001Z,2.00
2019-05-09T08:18:28.356Z,1.90
2019-05-09T08:20:57.988Z,2.00
2019-05-09T08:23:27.545Z,2.30
2019-05-09T08:25:57.950Z,2.02
2019-05-09T08:28:28.153Z,2.45
2019-05-09T08:30:58.581Z,2.05
2019-05-09T08:33:28.719Z,2.40
2019-05-09T08:35:58.653Z,2.60
2019-05-09T08:38:28.534Z,3.12
2019-05-09T08:41:09.143Z,2.87
2019-05-09T08:43:40.388Z,2.87
2019-05-09T08:46:10.997Z,2.90
2019-05-09T08:48:40.378Z,2.80
2019-05-09T08:51:13.455Z,3.15
2019-05-09T08:53:42.850Z,3.47
2019-05-09T08:56:13.154Z,2.40
2019-05-09T08:58:42.605Z,2.30
2019-05-09T09:01:13.060Z,2.75
2019-05-09T09:03:42.447Z,2.00
2019-05-09T09:06:11.865Z,2.40
2019-05-09T09:08:41.286Z,2.47
2019-05-09T09:11:10.709Z,2.17
2019-05-09T09:13:40.236Z,1.77
2019-05-09T09:16:18.515Z,1.77
2019-05-09T09:18:40.675Z,1.22
2019-05-09T09:21:10.035Z,1.57
2019-05-09T09:23:46.146Z,1.62
2019-05-09T09:26:10.447Z,1.32
2019-05-09T09:28:39.850Z,1.60
2019-05-09T09:31:09.219Z,1.47
2019-05-09T09:33:38.794Z,1.40
2019-05-09T09:36:08.820Z,1.37
2019-05-09T09:38:38.226Z,1.40
2019-05-09T09:41:07.967Z,1.55
2019-05-09T09:43:38.377Z,1.65
2019-05-09T09:46:14.304Z,2.05
2019-05-09T09:48:39.140Z,1.75
2019-05-09T09:51:08.563Z,2.30
2019-05-09T09:53:38.609Z,1.98
2019-05-09T09:56:08.875Z,1.82
2019-05-09T09:58:38.306Z,1.90
2019-05-09T10:01:20.883Z,1.98
2019-05-09T10:03:57.938Z,1.82
2019-05-09T10:06:28.458Z,2.25
2019-05-09T10:08:58.090Z,2.30
2019-05-09T10:11:28.648Z,1.80
2019-05-09T10:13:58.541Z,1.65
2019-05-09T10:16:38.993Z,1.30
2019-05-09T10:19:18.530Z,1.20
2019-05-09T10:21:51.077Z,1.22
2019-05-09T10:24:20.445Z,0.90
2019-05-09T10:27:09.754Z,1.10
2019-05-09T10:29:39.160Z,1.22
2019-05-09T10:32:13.457Z,1.00
2019-05-09T10:34:42.966Z,1.17
2019-05-09T10:37:12.346Z,1.07
2019-05-09T10:39:41.791Z,0.95
2019-05-09T10:42:21.602Z,0.90
2019-05-09T10:44:58.328Z,0.90
2019-05-09T10:47:30.609Z,1.10
2019-05-09T10:50:00.005Z,1.00
2019-05-09T10:52:29.873Z,0.93
2019-05-09T10:54:59.255Z,0.75
2019-05-09T10:57:31.602Z,0.93
2019-05-09T10:59:59.771Z,1.30
2019-05-09T11:02:29.123Z,0.90
2019-05-09T11:04:58.494Z,0.72
2019-05-09T11:07:28.942Z,1.35
2019-05-09T11:09:58.961Z,0.90
2019-05-09T11:12:28.438Z,0.90
2019-05-09T11:14:59.486Z,0.82
2019-05-09T11:17:28.788Z,1.05
2019-05-09T11:19:58.741Z,1.00
2019-05-09T11:22:29.219Z,1.00
2019-05-09T11:24:58.827Z,0.70
2019-05-09T11:27:29.285Z,1.02
2019-05-09T11:29:58.799Z,1.05
2019-05-09T11:32:28.156Z,0.72
2019-05-09T11:34:57.788Z,0.95
2019-05-09T11:37:27.180Z,1.02
2019-05-09T11:39:58.050Z,0.78
2019-05-09T11:42:28.505Z,0.85
2019-05-09T11:44:58.241Z,0.70
2019-05-09T11:47:37.560Z,0.78
2019-05-09T11:49:58.660Z,0.70
2019-05-09T11:52:28.847Z,0.80
2019-05-09T11:54:58.388Z,0.80
2019-05-09T11:57:31.310Z,0.88
2019-05-09T11:59:58.861Z,0.90
2019-05-09T12:02:28.151Z,0.85
2019-05-09T12:04:57.607Z,0.70
2019-05-09T12:07:28.773Z,0.80
2019-05-09T12:09:58.881Z,0.90
2019-05-09T12:12:28.490Z,0.80
2019-05-09T12:14:58.207Z,0.70
2019-05-09T12:17:40.839Z,0.60
2019-05-09T12:20:09.411Z,0.78
2019-05-09T12:22:29.771Z,0.50
2019-05-09T12:24:59.413Z,0.53
2019-05-09T12:27:28.797Z,0.60
2019-05-09T12:29:58.374Z,0.57
2019-05-09T12:32:28.464Z,0.68
2019-05-09T12:34:58.120Z,0.57
2019-05-09T12:37:28.130Z,0.78
2019-05-09T12:39:58.584Z,0.78
2019-05-09T12:42:29.280Z,0.60
2019-05-09T12:44:59.121Z,0.80
2019-05-09T12:47:29.203Z,1.32
2019-05-09T12:50:02.674Z,0.62
2019-05-09T12:52:29.707Z,0.60
2019-05-09T12:54:59.102Z,0.82
2019-05-09T12:57:29.011Z,0.70
2019-05-09T12:59:58.818Z,0.70
2019-05-09T13:02:28.284Z,1.00
2019-05-09T13:04:57.737Z,0.85
2019-05-09T13:07:29.681Z,0.82
2019-05-09T13:10:01.291Z,0.65
2019-05-09T13:12:30.651Z,1.05
2019-05-09T13:15:00.054Z,0.78
2019-05-09T13:17:32.529Z,0.70
2019-05-09T13:20:02.475Z,0.60
2019-05-09T13:22:31.863Z,0.75
2019-05-09T13:25:03.017Z,0.70
2019-05-09T13:27:32.314Z,0.80
2019-05-09T13:30:02.192Z,0.88
2019-05-09T13:32:31.790Z,0.70
2019-05-09T13:35:01.186Z,1.10
2019-05-09T13:37:30.556Z,0.60
2019-05-09T13:40:02.306Z,0.78
2019-05-09T13:42:31.687Z,0.78
2019-05-09T13:45:01.076Z,0.65
2019-05-09T13:47:30.358Z,0.62
2019-05-09T13:49:59.755Z,0.60
2019-05-09T13:52:29.138Z,0.70
2019-05-09T13:54:58.709Z,0.82
2019-05-09T13:57:28.200Z,0.70
2019-05-09T13:59:58.515Z,1.05
2019-05-09T14:02:29.452Z,0.80
2019-05-09T14:04:59.072Z,0.70
2019-05-09T14:07:28.458Z,0.60
2019-05-09T14:09:57.739Z,0.57
2019-05-09T14:12:28.917Z,0.75
2019-05-09T14:14:58.336Z,0.70
2019-05-09T14:17:44.945Z,0.60
2019-05-09T14:19:58.842Z,0.88
2019-05-09T14:22:28.270Z,0.78
2019-05-09T14:24:58.529Z,0.70
2019-05-09T14:27:28.929Z,0.72
2019-05-09T14:29:59.493Z,0.78
2019-05-09T14:32:31.086Z,0.70
2019-05-09T14:35:00.234Z,0.90
2019-05-09T14:37:29.623Z,0.65
2019-05-09T14:40:03.814Z,0.70
2019-05-09T14:42:30.065Z,0.70
2019-05-09T14:44:59.451Z,0.60
2019-05-09T14:47:30.783Z,0.60
2019-05-09T14:49:59.885Z,0.80
2019-05-09T14:52:29.223Z,0.68
2019-05-09T14:54:58.606Z,0.80
2019-05-09T14:57:28.593Z,0.90
2019-05-09T14:59:58.528Z,0.80
2019-05-09T15:02:27.940Z,0.60
2019-05-09T15:04:58.600Z,0.57
2019-05-09T15:07:28.482Z,0.75
2019-05-09T15:09:59.926Z,0.90
2019-05-09T15:12:29.075Z,0.80
2019-05-09T15:14:58.563Z,0.72
2019-05-09T15:17:27.953Z,0.78
2019-05-09T15:20:00.512Z,0.82
2019-05-09T15:22:28.566Z,0.50
2019-05-09T15:24:59.081Z,0.82
2019-05-09T15:27:28.523Z,0.80
2019-05-09T15:29:58.537Z,0.82
2019-05-09T15:32:28.136Z,0.90
2019-05-09T15:34:57.800Z,0.70
2019-05-09T15:37:28.563Z,0.70
2019-05-09T15:39:58.179Z,0.93
2019-05-09T15:42:27.572Z,0.75
2019-05-09T15:44:58.944Z,0.85
2019-05-09T15:47:32.223Z,0.80
2019-05-09T15:50:15.588Z,1.35
2019-05-09T15:52:34.129Z,0.68
2019-05-09T15:55:03.509Z,0.70
2019-05-09T15:57:37.687Z,0.85
2019-05-09T16:00:08.284Z,0.93
2019-05-09T16:02:40.944Z,1.17
2019-05-09T16:05:10.893Z,0.72
2019-05-09T16:07:40.390Z,0.78
2019-05-09T16:10:10.051Z,0.72
2019-05-09T16:12:39.463Z,0.72
2019-05-09T16:15:09.101Z,0.90
2019-05-09T16:17:39.488Z,0.90
2019-05-09T16:20:09.218Z,0.82
2019-05-09T16:22:39.340Z,0.78
2019-05-09T16:25:09.376Z,0.72
2019-05-09T16:27:38.792Z,0.80
2019-05-09T16:30:09.634Z,0.70
2019-05-09T16:32:38.999Z,0.80
2019-05-09T16:35:09.138Z,0.90
2019-05-09T16:37:57.386Z,0.80
2019-05-09T16:40:10.011Z,0.90
2019-05-09T16:42:39.516Z,0.62
2019-05-09T16:45:09.060Z,0.80
2019-05-09T16:47:38.460Z,1.00
2019-05-09T16:50:12.107Z,0.60
2019-05-09T16:52:43.449Z,0.93
2019-05-09T16:55:18.043Z,0.70
2019-05-09T16:57:47.527Z,0.70
2019-05-09T17:00:31.457Z,0.60
2019-05-09T17:03:00.854Z,0.93
2019-05-09T17:05:30.489Z,1.00
2019-05-09T17:08:00.074Z,0.90
2019-05-09T17:10:29.575Z,0.80
2019-05-09T17:13:00.170Z,1.00
2019-05-09T17:15:29.562Z,0.95
2019-05-09T17:17:58.943Z,0.72
2019-05-09T17:20:41.249Z,0.85
2019-05-09T17:23:15.215Z,1.05
2019-05-09T17:25:48.115Z,0.70
2019-05-09T17:28:17.968Z,0.82
2019-05-09T17:30:49.909Z,0.72
2019-05-09T17:33:19.415Z,0.80
2019-05-09T17:35:49.592Z,0.70
2019-05-09T17:38:19.143Z,0.60
2019-05-09T17:40:48.718Z,0.70
2019-05-09T17:43:18.416Z,0.60
2019-05-09T17:45:48.153Z,1.22
2019-05-09T17:48:18.271Z,0.62
2019-05-09T17:50:50.282Z,0.70
2019-05-09T17:53:19.624Z,0.60
2019-05-09T17:55:49.037Z,0.78
2019-05-09T17:58:27.162Z,0.70
2019-05-09T18:00:49.914Z,0.90
2019-05-09T18:03:19.293Z,0.88
2019-05-09T18:05:48.817Z,0.82
2019-05-09T18:08:18.916Z,0.80
2019-05-09T18:10:48.668Z,0.60
2019-05-09T18:13:23.773Z,0.90
2019-05-09T18:15:49.318Z,0.70
2019-05-09T18:18:18.779Z,1.10
2019-05-09T18:20:48.253Z,0.93
2019-05-09T18:23:17.843Z,0.93
2019-05-09T18:25:49.397Z,1.47
2019-05-09T18:28:18.327Z,1.00
2019-05-09T18:30:47.960Z,0.93
2019-05-09T18:33:31.969Z,0.75
2019-05-09T18:36:01.479Z,0.93
2019-05-09T18:38:33.912Z,0.70
2019-05-09T18:41:06.983Z,0.80
2019-05-09T18:43:35.249Z,0.80
2019-05-09T18:46:04.728Z,0.70
2019-05-09T18:48:34.124Z,0.80
2019-05-09T18:51:03.598Z,0.90
2019-05-09T18:53:36.059Z,0.90
2019-05-09T18:56:05.465Z,0.98
2019-05-09T18:58:37.656Z,0.62
2019-05-09T19:01:07.394Z,1.00
2019-05-09T19:03:39.823Z,0.90
2019-05-09T19:06:09.190Z,1.00
2019-05-09T19:08:38.766Z,0.98
2019-05-09T19:11:08.134Z,1.17
2019-05-09T19:13:37.573Z,1.32
2019-05-09T19:16:33.347Z,1.60
2019-05-09T19:19:18.013Z,1.17
2019-05-09T19:22:04.376Z,1.50
2019-05-09T19:24:30.409Z,0.90
2019-05-09T19:26:59.807Z,0.80
2019-05-09T19:29:29.322Z,1.30
2019-05-09T19:31:58.819Z,1.17
2019-05-09T19:34:30.945Z,1.10
2019-05-09T19:37:00.447Z,1.00
2019-05-09T19:39:29.955Z,1.32
2019-05-09T19:41:59.313Z,1.17
2019-05-09T19:44:28.755Z,1.32
2019-05-09T19:47:01.373Z,1.27
2019-05-09T19:49:29.361Z,1.50
2019-05-09T19:51:58.888Z,1.40
2019-05-09T19:54:28.434Z,1.20
2019-05-09T19:56:57.825Z,1.10
2019-05-09T19:59:27.215Z,1.40
2019-05-09T20:01:56.550Z,1.00
2019-05-09T20:04:31.259Z,1.20
2019-05-09T20:07:00.673Z,1.30
2019-05-09T20:09:40.647Z,1.32
2019-05-09T20:12:27.710Z,1.30
2019-05-09T20:14:57.101Z,1.25
2019-05-09T20:17:26.722Z,1.22
2019-05-09T20:19:56.016Z,1.47
2019-05-09T20:22:25.583Z,1.40
2019-05-09T20:24:55.021Z,1.32
2019-05-09T20:27:24.414Z,1.20
2019-05-09T20:29:53.780Z,1.07
2019-05-09T20:32:23.162Z,1.45
2019-05-09T20:34:52.614Z,1.50
2019-05-09T20:37:22.145Z,1.30
2019-05-09T20:39:51.684Z,1.02
2019-05-09T20:42:21.260Z,1.30
2019-05-09T20:44:50.813Z,1.17
2019-05-09T20:47:20.445Z,1.40
2019-05-09T20:49:50.105Z,1.22
2019-05-09T20:52:21.504Z,1.55
2019-05-09T20:54:50.863Z,1.40
2019-05-09T20:57:20.470Z,1.50
2019-05-09T20:59:49.998Z,1.37
2019-05-09T21:02:19.575Z,1.20
2019-05-09T21:04:49.187Z,1.50
2019-05-09T21:07:21.165Z,1.00
2019-05-09T21:09:50.714Z,1.60
2019-05-09T21:12:20.326Z,1.10
2019-05-09T21:14:49.948Z,1.57
2019-05-09T21:17:19.539Z,1.52
2019-05-09T21:19:49.099Z,1.60
2019-05-09T21:22:19.861Z,1.50
2019-05-09T21:24:49.415Z,1.30
2019-05-09T21:27:18.965Z,1.20
2019-05-09T21:29:48.562Z,1.57
2019-05-09T21:32:18.142Z,1.22
2019-05-09T21:34:51.036Z,1.27
2019-05-09T21:37:24.842Z,0.90
2019-05-09T21:39:57.621Z,1.32
2019-05-09T21:42:34.028Z,1.55
2019-05-09T21:45:07.143Z,1.35
2019-05-09T21:47:36.550Z,1.22
2019-05-09T21:50:06.153Z,1.87
2019-05-09T21:52:35.530Z,1.50
2019-05-09T21:55:05.216Z,2.10
2019-05-09T21:57:34.609Z,1.25
2019-05-09T22:00:05.415Z,1.57
2019-05-09T22:02:34.805Z,0.90
2019-05-09T22:05:04.851Z,1.10
2019-05-09T22:07:34.389Z,1.27
2019-05-09T22:10:03.834Z,1.05
2019-05-09T22:12:33.215Z,1.35
2019-05-09T22:15:04.030Z,1.32
2019-05-09T22:17:38.281Z,1.47
2019-05-09T22:20:08.842Z,1.55
2019-05-09T22:22:38.256Z,1.35
2019-05-09T22:25:08.910Z,1.35
2019-05-09T22:27:38.285Z,1.40
2019-05-09T22:30:08.450Z,1.30
2019-05-09T22:32:37.827Z,1.30
2019-05-09T22:35:07.614Z,1.20
2019-05-09T22:37:37.010Z,0.90
2019-05-09T22:40:06.432Z,0.90
2019-05-09T22:42:35.823Z,1.10
2019-05-09T22:45:05.550Z,1.05
2019-05-09T22:47:34.929Z,0.90
2019-05-09T22:50:04.343Z,1.02
2019-05-09T22:52:33.851Z,0.93
2019-05-09T22:55:12.902Z,0.90
2019-05-09T22:57:42.336Z,0.80
2019-05-09T23:00:12.248Z,0.65
2019-05-09T23:02:41.576Z,0.90
2019-05-09T23:05:11.142Z,0.70
2019-05-09T23:07:40.490Z,0.90
2019-05-09T23:10:10.006Z,1.00
2019-05-09T23:12:39.349Z,0.93
2019-05-09T23:15:10.531Z,1.20
2019-05-09T23:17:39.914Z,1.00
2019-05-09T23:20:15.367Z,1.00
2019-05-09T23:22:44.730Z,0.72
2019-05-09T23:25:14.071Z,0.80
2019-05-09T23:27:43.461Z,0.90
2019-05-09T23:30:13.743Z,0.70
2019-05-09T23:32:44.835Z,0.70
2019-05-09T23:35:14.165Z,0.88
2019-05-09T23:37:43.542Z,0.88
2019-05-09T23:40:13.035Z,0.80
2019-05-09T23:42:42.423Z,1.00
2019-05-09T23:45:11.751Z,1.00
2019-05-09T23:47:41.028Z,1.17
2019-05-09T23:50:10.380Z,0.80
2019-05-09T23:52:39.656Z,0.90
2019-05-09T23:55:26.660Z,1.02
2019-05-09T23:58:13.647Z,1.10
